Time;durP1;ratioP1;P1;durP2;ratioP2;P2;SDS_P1;SDS_P2;PMS_P1;PMS_P2;Temp;Humidity;BMP_temperature;BMP_pressure;BME280_temperature;BME280_humidity;BME280_pressure;Samples;Min_cycle;Max_cycle;Signal;HPM_P1;HPM_P2
2021/12/12 00:00:47;;;;;;;62.20;30.50;;;;;;;-1.64;84.59;101137.16;84766;1330;22598;-72
2021/12/12 00:02:58;;;;;;;57.10;30.70;;;;;;;-1.63;84.52;101138.02;84740;1328;25439;-74
2021/12/12 00:05:09;;;;;;;69.10;29.80;;;;;;;-1.65;84.36;101142.27;84728;1327;24141;-69
2021/12/12 00:07:15;;;;;;;;;;;;;;;-1.64;84.38;101142.97;84790;1328;22728;-75
2021/12/12 00:09:25;;;;;;;69.10;32.20;;;;;;;-1.64;84.69;101144.33;84702;1328;26594;-75
2021/12/12 00:11:32;;;;;;;65.40;32.50;;;;;;;-1.64;84.54;101144.35;84747;1327;22605;-74
2021/12/12 00:13:43;;;;;;;71.10;32.90;;;;;;;-1.64;84.48;101145.88;84758;1327;23927;-75
2021/12/12 00:15:50;;;;;;;64.50;31.90;;;;;;;-1.66;84.17;101147.88;84773;1330;24665;-73
2021/12/12 00:18:00;;;;;;;67.50;32.90;;;;;;;-1.68;84.19;101151.94;84750;1329;25463;-74
2021/12/12 00:20:09;;;;;;;66.20;33.40;;;;;;;-1.72;84.16;101154.77;84616;1330;22606;-74
2021/12/12 00:22:18;;;;;;;62.60;32.00;;;;;;;-1.76;83.89;101157.73;84740;1330;24255;-69
2021/12/12 00:24:27;;;;;;;64.80;33.00;;;;;;;-1.78;84.08;101159.20;84745;1327;22585;-68
2021/12/12 00:26:36;;;;;;;65.20;32.50;;;;;;;-1.78;84.15;101159.38;84732;1327;22953;-69
2021/12/12 00:28:43;;;;;;;62.90;31.80;;;;;;;-1.78;84.18;101159.58;84753;1330;22582;-68
2021/12/12 00:30:54;;;;;;;68.70;33.00;;;;;;;-1.82;83.96;101156.57;84762;1327;22715;-69
2021/12/12 00:33:04;;;;;;;66.10;31.20;;;;;;;-1.85;84.10;101156.49;84768;1327;22620;-69
2021/12/12 00:35:14;;;;;;;77.70;37.20;;;;;;;-1.84;84.30;101155.65;84052;1328;1003855;-68
2021/12/12 00:37:21;;;;;;;67.90;34.30;;;;;;;-1.83;84.34;101157.88;84709;1330;25317;-74
2021/12/12 00:39:29;;;;;;;69.30;34.90;;;;;;;-1.85;84.50;101156.85;84737;1327;23924;-74
2021/12/12 00:41:43;;;;;;;71.60;34.10;;;;;;;-1.89;84.14;101156.39;84729;1321;22709;-75
2021/12/12 00:43:53;;;;;;;71.30;34.70;;;;;;;-1.92;84.32;101158.04;84712;1327;22580;-75
2021/12/12 00:46:00;;;;;;;77.40;35.60;;;;;;;-1.94;84.09;101155.92;84752;1327;22605;-74
2021/12/12 00:48:10;;;;;;;70.90;35.30;;;;;;;-1.94;84.22;101158.64;84745;1321;22607;-76
2021/12/12 00:50:19;;;;;;;71.60;35.00;;;;;;;-1.91;84.40;101160.09;84779;1327;22605;-75
2021/12/12 00:52:26;;;;;;;74.60;35.70;;;;;;;-1.91;84.38;101157.70;84753;1330;24315;-75
2021/12/12 00:54:33;;;;;;;77.00;35.60;;;;;;;-1.92;84.31;101160.94;84776;1328;22910;-75
2021/12/12 00:56:40;;;;;;;75.80;35.10;;;;;;;-1.93;84.49;101158.67;84721;1329;23285;-69
2021/12/12 00:58:47;;;;;;;80.30;35.90;;;;;;;-1.91;84.61;101160.09;84761;1327;22627;-68
2021/12/12 01:01:02;;;;;;;82.80;36.10;;;;;;;-1.89;84.79;101159.46;84730;1327;22644;-66
2021/12/12 01:03:14;;;;;;;81.80;37.10;;;;;;;-1.89;84.67;101160.33;84783;1327;22850;-68
2021/12/12 01:05:21;;;;;;;76.00;34.20;;;;;;;-1.90;84.74;101165.09;84740;1327;24269;-67
2021/12/12 01:07:30;;;;;;;72.10;33.90;;;;;;;-1.91;84.68;101165.59;84774;1328;22591;-69
2021/12/12 01:09:40;;;;;;;76.20;35.60;;;;;;;-1.91;84.86;101165.75;84759;1328;22860;-68
2021/12/12 01:11:50;;;;;;;83.20;36.10;;;;;;;-1.89;84.86;101165.10;84058;1327;1003804;-74
2021/12/12 01:13:59;;;;;;;78.20;34.90;;;;;;;-1.86;84.99;101165.20;84764;1328;22671;-74
2021/12/12 01:16:09;;;;;;;81.20;35.90;;;;;;;-1.83;85.01;101158.41;84730;1329;22862;-68
2021/12/12 01:18:28;;;;;;;76.00;34.20;;;;;;;-1.80;84.89;101153.02;84766;1328;22580;-68
2021/12/12 01:20:38;;;;;;;54.60;25.90;;;;;;;-1.81;84.61;101152.30;84777;1327;22788;-69
2021/12/12 01:22:45;;;;;;;73.10;33.40;;;;;;;-1.84;84.58;101153.45;84092;1327;1015715;-75
2021/12/12 01:24:53;;;;;;;74.90;33.30;;;;;;;-1.87;84.47;101155.41;84755;1327;22839;-74
2021/12/12 01:27:03;;;;;;;76.20;36.90;;;;;;;-1.89;84.68;101153.13;84768;1326;22620;-69
2021/12/12 01:29:10;;;;;;;85.50;36.20;;;;;;;-1.92;84.65;101148.77;84753;1326;22694;-69
2021/12/12 01:31:24;;;;;;;73.50;32.90;;;;;;;-1.93;84.56;101154.21;84764;1327;22603;-69
2021/12/12 01:33:35;;;;;;;75.70;33.50;;;;;;;-1.95;84.59;101155.38;84750;1327;22584;-69
2021/12/12 01:35:42;;;;;;;71.20;34.50;;;;;;;-1.95;84.52;101158.46;84744;1327;23051;-68
2021/12/12 01:38:51;;;;;;;76.10;36.20;;;;;;;-1.95;84.71;101156.24;84745;1326;22597;-68
2021/12/12 01:40:26;;;;;;;77.70;37.80;;;;;;;-1.94;84.68;101155.91;84659;1329;22731;-74
2021/12/12 01:42:35;;;;;;;77.10;34.50;;;;;;;-1.95;84.66;101157.09;84742;1328;22720;-75
2021/12/12 01:44:48;;;;;;;83.10;36.60;;;;;;;-1.96;84.83;101158.10;84780;1327;25309;-74
2021/12/12 01:47:02;;;;;;;79.10;35.20;;;;;;;-1.95;84.97;101162.73;84736;1327;23149;-68
2021/12/12 01:49:11;;;;;;;78.30;36.80;;;;;;;-1.94;85.13;101162.92;84783;1324;22733;-68
2021/12/12 01:51:17;;;;;;;77.90;34.20;;;;;;;-1.92;84.97;101165.04;84767;1329;22591;-68
2021/12/12 01:53:29;;;;;;;83.50;38.30;;;;;;;-1.91;84.91;101163.53;84748;1327;22613;-68
2021/12/12 01:55:39;;;;;;;80.30;38.60;;;;;;;-1.89;84.96;101162.20;84765;1330;22650;-68
2021/12/12 01:57:47;;;;;;;86.30;39.00;;;;;;;-1.88;84.88;101158.97;84749;1327;22763;-74
2021/12/12 01:59:53;;;;;;;78.60;36.40;;;;;;;-1.88;84.81;101154.17;84688;1322;24368;-75
2021/12/12 02:02:05;;;;;;;84.30;40.10;;;;;;;-1.88;85.06;101149.94;84754;1327;22840;-76
2021/12/12 02:04:16;;;;;;;93.20;39.80;;;;;;;-1.89;84.92;101150.39;84776;1323;22759;-76
2021/12/12 02:06:23;;;;;;;83.80;37.90;;;;;;;-1.92;84.83;101154.95;84774;1327;24348;-69
2021/12/12 02:08:33;;;;;;;86.10;38.10;;;;;;;-1.95;84.93;101158.13;84734;1329;22806;-69
2021/12/12 02:10:42;;;;;;;79.40;37.00;;;;;;;-1.97;84.75;101158.58;84040;1328;1003800;-68
2021/12/12 02:12:49;;;;;;;85.10;39.10;;;;;;;-2.00;84.59;101158.66;84796;1327;22658;-74
2021/12/12 02:14:59;;;;;;;81.30;37.20;;;;;;;-2.01;84.76;101156.44;84742;1327;22607;-74
2021/12/12 02:17:13;;;;;;;79.80;35.00;;;;;;;-1.99;84.88;101159.89;84713;1328;22622;-75
2021/12/12 02:19:31;;;;;;;87.30;37.10;;;;;;;-1.95;85.09;101162.39;84762;1327;22736;-73
2021/12/12 02:21:56;;;;;;;86.00;38.40;;;;;;;-1.93;85.02;101164.84;84742;1330;25265;-74
2021/12/12 02:35:04;;;;;;;81.40;38.60;;;;;;;-1.89;85.26;101164.77;84756;1321;22610;-75
2021/12/12 02:36:29;;;;;;;87.10;37.20;;;;;;;-1.93;85.10;101175.42;84757;1324;22610;-74
2021/12/12 02:38:35;;;;;;;88.20;36.20;;;;;;;-1.90;85.38;101179.45;84745;1327;22746;-74
2021/12/12 02:40:47;;;;;;;86.20;37.80;;;;;;;-1.85;85.55;101180.94;84777;1327;25621;-74
2021/12/12 02:42:54;;;;;;;81.80;39.60;;;;;;;-1.82;85.41;101183.27;84745;1327;22696;-68
2021/12/12 02:45:05;;;;;;;80.10;36.40;;;;;;;-1.81;85.17;101183.44;84788;1327;23971;-69
2021/12/12 02:47:14;;;;;;;82.90;37.30;;;;;;;-1.82;85.28;101181.19;84764;1327;22690;-75
2021/12/12 02:49:36;;;;;;;85.70;38.00;;;;;;;-1.80;85.43;101188.42;84767;1327;25729;-75
2021/12/12 02:51:46;;;;;;;89.30;39.10;;;;;;;-1.78;85.29;101186.73;84712;1328;25415;-68
2021/12/12 02:53:55;;;;;;;88.80;39.50;;;;;;;-1.79;85.25;101189.98;84757;1328;22609;-69
2021/12/12 02:56:04;;;;;;;86.10;40.50;;;;;;;-1.82;85.21;101189.91;84041;1327;1002744;-69
2021/12/12 02:58:16;;;;;;;86.90;38.50;;;;;;;-1.86;85.16;101195.63;84760;1325;22634;-69
2021/12/12 03:00:27;;;;;;;82.90;35.70;;;;;;;-1.89;84.87;101199.46;84047;1327;1002931;-69
2021/12/12 03:02:40;;;;;;;84.90;36.60;;;;;;;-1.90;84.94;101198.77;84790;1321;22677;-69
2021/12/12 03:04:47;;;;;;;75.30;35.80;;;;;;;-1.87;85.30;101202.45;84757;1328;22598;-69
2021/12/12 03:06:53;;;;;;;83.90;38.80;;;;;;;-1.80;85.46;101202.63;84772;1330;22619;-69
2021/12/12 03:09:05;;;;;;;82.10;37.50;;;;;;;-1.75;85.49;101203.61;84774;1324;22876;-69
2021/12/12 03:11:15;;;;;;;91.60;40.10;;;;;;;-1.73;85.40;101203.65;84787;1327;22590;-68
2021/12/12 03:13:22;;;;;;;76.30;36.50;;;;;;;-1.74;85.50;101206.00;84769;1327;22606;-68
2021/12/12 03:15:30;;;;;;;97.90;40.90;;;;;;;-1.74;85.55;101210.64;84762;1327;25457;-68
2021/12/12 03:17:37;;;;;;;92.10;40.10;;;;;;;-1.76;85.45;101212.31;84756;1327;22685;-68
2021/12/12 03:19:44;;;;;;;88.20;36.40;;;;;;;-1.76;85.61;101210.77;84763;1329;25294;-68
2021/12/12 03:21:52;;;;;;;90.50;38.40;;;;;;;-1.75;85.68;101209.75;84739;1327;24117;-74
2021/12/12 03:24:05;;;;;;;91.30;38.30;;;;;;;-1.75;85.59;101209.25;84754;1328;23942;-74
2021/12/12 03:26:14;;;;;;;75.40;34.80;;;;;;;-1.72;85.71;101203.88;84754;1327;22754;-74
2021/12/12 03:28:26;;;;;;;75.70;36.40;;;;;;;-1.67;85.51;101199.89;84754;1330;26756;-74
2021/12/12 03:30:35;;;;;;;84.50;37.60;;;;;;;-1.66;85.28;101200.59;84767;1327;23931;-74
2021/12/12 03:32:45;;;;;;;75.30;33.70;;;;;;;-1.62;85.55;101200.52;84699;1331;22629;-75
2021/12/12 03:34:56;;;;;;;61.50;31.00;;;;;;;-1.61;85.33;101203.10;84767;1330;25593;-75
2021/12/12 03:37:02;;;;;;;72.50;32.90;;;;;;;-1.64;85.21;101208.98;84750;1327;25971;-69
2021/12/12 03:39:12;;;;;;;83.60;34.60;;;;;;;-1.67;85.30;101206.37;84039;1329;1003480;-69
2021/12/12 03:41:22;;;;;;;79.00;34.10;;;;;;;-1.72;85.24;101205.91;84746;1330;22604;-69
2021/12/12 03:43:27;;;;;;;;;;;;;;;-1.73;85.03;101202.30;84768;1327;25345;-68
2021/12/12 03:45:34;;;;;;;76.80;34.20;;;;;;;-1.75;85.42;101207.02;84038;1327;1003862;-68
2021/12/12 03:47:43;;;;;;;66.50;32.30;;;;;;;-1.76;85.27;101206.13;84744;1330;25351;-74
2021/12/12 03:49:52;;;;;;;73.10;33.50;;;;;;;-1.77;85.24;101206.46;84749;1327;23050;-75
2021/12/12 03:52:02;;;;;;;68.30;31.80;;;;;;;-1.73;85.43;101205.02;84750;1329;22598;-74
2021/12/12 03:54:07;;;;;;;;;;;;;;;-1.70;85.39;101205.95;84696;1332;22585;-75
2021/12/12 03:56:15;;;;;;;75.70;33.00;;;;;;;-1.71;85.53;101208.67;84762;1325;24360;-75
2021/12/12 03:58:21;;;;;;;82.30;37.70;;;;;;;-1.69;85.44;101207.67;84747;1324;22822;-76
2021/12/12 04:00:31;;;;;;;81.60;34.60;;;;;;;-1.66;85.86;101205.90;84749;1327;25256;-74
2021/12/12 04:02:38;;;;;;;80.00;35.30;;;;;;;-1.58;85.98;101205.22;84715;1328;26640;-68
2021/12/12 04:04:46;;;;;;;73.40;35.10;;;;;;;-1.56;85.72;101207.85;84616;1330;23940;-68
2021/12/12 04:06:52;;;;;;;75.80;37.10;;;;;;;-1.60;85.28;101208.92;84071;1327;1003618;-69
2021/12/12 04:09:03;;;;;;;73.50;33.30;;;;;;;-1.67;85.20;101210.83;84679;1331;25333;-69
2021/12/12 04:11:15;;;;;;;72.50;35.00;;;;;;;-1.70;85.15;101216.55;84757;1327;22599;-75
2021/12/12 04:13:24;;;;;;;68.80;33.00;;;;;;;-1.73;85.14;101220.75;84689;1329;22600;-74
2021/12/12 04:15:31;;;;;;;63.70;31.20;;;;;;;-1.74;85.08;101224.48;84776;1323;25339;-75
2021/12/12 04:17:37;;;;;;;69.10;34.80;;;;;;;-1.73;85.28;101228.77;84736;1330;22871;-69
2021/12/12 04:19:45;;;;;;;64.90;31.80;;;;;;;-1.70;85.26;101234.88;84774;1327;23847;-69
2021/12/12 04:21:54;;;;;;;71.70;32.60;;;;;;;-1.69;85.20;101235.39;84791;1329;22600;-75
2021/12/12 04:24:01;;;;;;;70.40;34.20;;;;;;;-1.69;85.24;101240.52;84700;1330;22718;-74
2021/12/12 04:26:21;;;;;;;79.00;38.10;;;;;;;-1.70;85.29;101242.55;84600;1329;25444;-73
2021/12/12 04:28:26;;;;;;;;;;;;;;;-1.70;85.33;101250.42;84785;1325;22682;-73
2021/12/12 04:30:32;;;;;;;72.20;37.30;;;;;;;-1.74;85.18;101259.23;84767;1327;22597;-74
2021/12/12 04:32:42;;;;;;;84.50;38.00;;;;;;;-1.75;85.42;101259.53;84770;1325;22974;-74
2021/12/12 04:34:53;;;;;;;86.90;40.60;;;;;;;-1.74;85.49;101262.12;84693;1330;22606;-74
2021/12/12 04:37:03;;;;;;;77.90;36.00;;;;;;;-1.74;85.32;101264.52;84756;1330;22627;-68
2021/12/12 04:39:09;;;;;;;;;;;;;;;-1.72;85.37;101273.13;84752;1327;22590;-68
2021/12/12 04:41:15;;;;;;;68.70;34.70;;;;;;;-1.71;85.66;101277.27;84730;1329;22844;-69
2021/12/12 04:43:22;;;;;;;72.30;37.60;;;;;;;-1.64;85.75;101275.88;84749;1327;22590;-69
2021/12/12 04:45:42;;;;;;;72.30;33.80;;;;;;;-1.63;85.51;101280.90;84689;1324;22714;-68
2021/12/12 04:50:23;;;;;;;77.20;36.40;;;;;;;-1.61;85.41;101284.70;84718;1330;23217;-69
2021/12/12 04:52:33;;;;;;;80.20;39.70;;;;;;;-1.62;85.41;101292.70;84724;1330;23911;-75
2021/12/12 04:54:43;;;;;;;79.40;38.40;;;;;;;-1.64;85.34;101297.10;84734;1329;25482;-77
2021/12/12 04:56:50;;;;;;;;;;;;;;;-1.66;85.23;101295.88;84713;1324;24352;-76
2021/12/12 04:59:00;;;;;;;82.60;37.90;;;;;;;-1.70;85.46;101297.99;84689;1328;22878;-74
2021/12/12 05:01:08;;;;;;;87.40;38.80;;;;;;;-1.71;85.44;101293.34;84728;1331;22661;-69
2021/12/12 05:03:17;;;;;;;79.10;37.30;;;;;;;-1.71;85.41;101297.61;84732;1327;22673;-69
2021/12/12 05:05:26;;;;;;;81.70;38.10;;;;;;;-1.72;85.25;101297.24;84761;1327;22838;-68
2021/12/12 05:07:36;;;;;;;66.50;35.00;;;;;;;-1.73;85.00;101299.42;84727;1327;22552;-68
2021/12/12 05:09:49;;;;;;;69.20;36.60;;;;;;;-1.74;84.95;101296.15;84701;1328;22626;-68
2021/12/12 05:12:02;;;;;;;72.40;36.90;;;;;;;-1.73;85.06;101299.77;84703;1329;22600;-70
2021/12/12 05:14:13;;;;;;;79.10;40.40;;;;;;;-1.74;85.10;101298.05;84698;1327;24172;-69
2021/12/12 05:16:23;;;;;;;77.50;41.30;;;;;;;-1.74;85.21;101300.27;84685;1327;22610;-69
2021/12/12 05:18:32;;;;;;;79.30;40.50;;;;;;;-1.73;85.16;101304.04;84715;1325;22606;-70
2021/12/12 05:20:40;;;;;;;79.10;41.70;;;;;;;-1.74;85.19;101306.07;82472;1327;3257368;-70
2021/12/12 05:22:49;;;;;;;83.80;42.60;;;;;;;-1.73;85.30;101305.76;84694;1330;22626;-75
2021/12/12 05:25:00;;;;;;;81.00;40.10;;;;;;;-1.74;85.26;101305.21;84687;1330;22647;-75
2021/12/12 05:27:12;;;;;;;74.70;39.20;;;;;;;-1.75;85.22;101305.21;84014;1327;1002564;-71
2021/12/12 05:29:23;;;;;;;72.50;38.50;;;;;;;-1.73;85.17;101305.77;84727;1330;25556;-69
2021/12/12 05:31:30;;;;;;;76.20;38.50;;;;;;;-1.71;85.20;101301.38;84780;1327;24255;-75
2021/12/12 05:33:40;;;;;;;79.50;39.90;;;;;;;-1.69;85.18;101306.39;84679;1330;23996;-74
2021/12/12 05:35:45;;;;;;;;;;;;;;;-1.69;85.13;101309.13;84791;1327;22576;-73
2021/12/12 05:37:52;;;;;;;83.30;40.90;;;;;;;-1.71;85.23;101309.42;84703;1326;23076;-74
2021/12/12 05:40:02;;;;;;;86.70;43.30;;;;;;;-1.69;85.31;101308.79;84673;1328;24907;-74
2021/12/12 05:42:09;;;;;;;85.00;43.50;;;;;;;-1.69;85.37;101312.88;84726;1328;22711;-68
2021/12/12 05:44:18;;;;;;;78.40;40.10;;;;;;;-1.68;85.49;101309.15;84702;1323;24369;-69
2021/12/12 05:46:25;;;;;;;82.90;42.90;;;;;;;-1.68;85.52;101310.84;83994;1326;1003909;-73
2021/12/12 05:48:35;;;;;;;77.40;40.40;;;;;;;-1.66;85.52;101311.45;84687;1328;23972;-74
2021/12/12 05:50:43;;;;;;;82.30;41.90;;;;;;;-1.62;85.57;101316.86;84773;1327;24925;-74
2021/12/12 05:52:54;;;;;;;79.90;39.80;;;;;;;-1.58;85.60;101327.06;84691;1327;22848;-74
2021/12/12 05:55:00;;;;;;;75.80;41.90;;;;;;;-1.56;85.57;101327.11;84688;1328;23924;-75
2021/12/12 05:57:09;;;;;;;81.00;41.30;;;;;;;-1.56;85.38;101327.45;84695;1327;22629;-69
2021/12/12 05:59:18;;;;;;;84.40;41.80;;;;;;;-1.54;85.37;101328.50;84767;1327;25375;-68
2021/12/12 06:01:28;;;;;;;88.00;42.50;;;;;;;-1.55;85.38;101333.63;84697;1326;22596;-68
2021/12/12 06:03:37;;;;;;;86.30;42.10;;;;;;;-1.58;85.01;101338.33;84752;1327;24264;-68
2021/12/12 06:05:44;;;;;;;85.60;40.20;;;;;;;-1.62;85.03;101342.84;84769;1322;24367;-69
2021/12/12 06:07:51;;;;;;;84.60;40.80;;;;;;;-1.65;85.03;101348.91;83967;1328;1003329;-69
2021/12/12 06:10:00;;;;;;;87.90;42.40;;;;;;;-1.68;85.04;101355.34;84695;1328;22593;-70
2021/12/12 06:12:11;;;;;;;88.90;42.20;;;;;;;-1.69;85.14;101354.27;84813;1327;22588;-76
2021/12/12 06:14:18;;;;;;;86.60;41.50;;;;;;;-1.70;85.09;101353.08;84689;1330;22620;-75
2021/12/12 06:16:25;;;;;;;85.70;40.80;;;;;;;-1.67;85.19;101350.94;84726;1328;22672;-70
2021/12/12 06:18:33;;;;;;;82.20;41.20;;;;;;;-1.63;85.57;101358.53;84772;1327;24418;-69
2021/12/12 06:20:40;;;;;;;90.10;43.50;;;;;;;-1.60;85.46;101359.34;84739;1327;22596;-68
2021/12/12 06:22:47;;;;;;;87.90;42.20;;;;;;;-1.55;85.66;101360.30;84688;1327;23978;-70
2021/12/12 06:24:54;;;;;;;84.50;39.40;;;;;;;-1.51;85.57;101356.67;84689;1329;24242;-69
2021/12/12 06:27:06;;;;;;;77.00;37.60;;;;;;;-1.51;85.37;101357.84;84756;1327;22742;-70
2021/12/12 06:29:13;;;;;;;79.50;40.30;;;;;;;-1.56;84.91;101355.84;84762;1327;22961;-72
2021/12/12 06:31:20;;;;;;;85.90;42.80;;;;;;;-1.59;84.90;101358.00;84737;1327;22713;-71
2021/12/12 06:33:27;;;;;;;86.90;42.40;;;;;;;-1.61;85.21;101359.63;84724;1330;22621;-69
2021/12/12 06:35:36;;;;;;;102.50;46.30;;;;;;;-1.62;85.05;101360.64;84760;1323;24405;-69
2021/12/12 06:37:45;;;;;;;;;;;;;;;-1.59;85.09;101359.02;84765;1330;22560;-77
2021/12/12 06:39:52;;;;;;;141.90;57.50;;;;;;;-1.59;85.21;101358.67;84691;1321;22609;-75
2021/12/12 06:41:59;;;;;;;146.40;56.60;;;;;;;-1.55;85.40;101362.02;84691;1327;22741;-69
2021/12/12 06:44:06;;;;;;;153.60;58.60;;;;;;;-1.51;85.54;101365.56;84732;1330;22808;-68
2021/12/12 06:46:13;;;;;;;154.90;58.70;;;;;;;-1.50;85.25;101364.04;84722;1327;22607;-74
2021/12/12 06:48:20;;;;;;;169.70;65.30;;;;;;;-1.49;85.35;101366.79;84749;1327;22612;-75
2021/12/12 06:50:27;;;;;;;174.80;61.50;;;;;;;-1.49;85.33;101366.80;84740;1328;22887;-74
2021/12/12 06:52:34;;;;;;;168.90;67.30;;;;;;;-1.49;85.37;101370.22;84719;1332;22675;-69
2021/12/12 06:54:41;;;;;;;167.20;64.20;;;;;;;-1.50;85.24;101372.08;84646;1329;25474;-69
2021/12/12 06:56:51;;;;;;;158.50;59.50;;;;;;;-1.52;85.09;101372.73;84755;1325;22873;-69
2021/12/12 06:59:01;;;;;;;163.20;62.50;;;;;;;-1.53;84.96;101371.48;84718;1331;25457;-69
2021/12/12 07:01:15;;;;;;;154.30;60.70;;;;;;;-1.55;84.74;101365.80;84711;1328;25387;-74
2021/12/12 07:03:23;;;;;;;151.90;56.30;;;;;;;-1.55;84.88;101364.08;84679;1327;22586;-75
2021/12/12 07:05:30;;;;;;;153.10;59.50;;;;;;;-1.55;85.06;101367.67;84756;1327;22579;-74
2021/12/12 07:07:37;;;;;;;161.90;60.30;;;;;;;-1.57;84.81;101372.95;84717;1321;22659;-70
2021/12/12 07:09:45;;;;;;;154.70;59.20;;;;;;;-1.58;84.91;101382.81;84668;1328;22946;-69
2021/12/12 07:11:54;;;;;;;169.60;63.60;;;;;;;-1.59;84.93;101384.85;84716;1327;22647;-68
2021/12/12 07:14:01;;;;;;;179.10;65.40;;;;;;;-1.56;85.24;101381.86;84703;1325;24332;-69
2021/12/12 07:16:11;;;;;;;171.20;66.40;;;;;;;-1.55;85.02;101379.64;84764;1327;25451;-73
2021/12/12 07:18:19;;;;;;;;;;;;;;;-1.56;85.15;101379.64;83967;1327;1003686;-69
2021/12/12 07:20:29;;;;;;;168.10;59.60;;;;;;;-1.56;85.04;101383.91;84704;1328;22703;-69
2021/12/12 07:22:39;;;;;;;158.90;61.10;;;;;;;-1.54;85.14;101391.14;84697;1330;22600;-70
2021/12/12 07:24:49;;;;;;;159.90;62.60;;;;;;;-1.50;85.28;101396.73;84688;1324;22797;-69
2021/12/12 07:27:00;;;;;;;176.80;68.10;;;;;;;-1.46;85.17;101400.27;84735;1329;22603;-75
2021/12/12 07:29:07;;;;;;;176.90;67.20;;;;;;;-1.43;85.25;101406.83;84750;1327;22590;-75
2021/12/12 07:31:20;;;;;;;171.90;69.90;;;;;;;-1.43;85.01;101408.23;84771;1323;22600;-74
2021/12/12 07:33:27;;;;;;;166.10;67.40;;;;;;;-1.45;85.00;101409.86;84704;1329;22784;-74
2021/12/12 07:35:36;;;;;;;157.30;59.00;;;;;;;-1.47;84.82;101414.59;84688;1330;22619;-75
2021/12/12 07:37:46;;;;;;;154.40;60.60;;;;;;;-1.49;84.82;101409.92;84712;1329;23743;-69
2021/12/12 07:39:54;;;;;;;;;;;;;;;-1.50;84.93;101409.73;84050;1327;1003156;-68
2021/12/12 07:42:08;;;;;;;155.20;55.40;;;;;;;-1.53;84.97;101407.41;84718;1330;22632;-75
2021/12/12 07:44:20;;;;;;;147.70;57.50;;;;;;;-1.50;84.97;101409.73;84707;1330;22587;-75
2021/12/12 07:46:30;;;;;;;150.50;55.00;;;;;;;-1.47;85.04;101414.61;84753;1327;23088;-74
2021/12/12 07:48:39;;;;;;;145.70;57.40;;;;;;;-1.43;85.00;101419.17;84667;1330;22877;-74
2021/12/12 07:50:47;;;;;;;153.00;61.60;;;;;;;-1.38;85.23;101420.16;84744;1327;22587;-71
2021/12/12 07:52:57;;;;;;;158.30;61.60;;;;;;;-1.34;84.98;101419.91;84737;1327;25333;-76
2021/12/12 07:55:03;;;;;;;175.60;67.30;;;;;;;-1.34;84.87;101420.44;84746;1327;22743;-76
2021/12/12 07:57:10;;;;;;;182.20;71.50;;;;;;;-1.35;84.64;101424.17;84706;1330;23074;-69
2021/12/12 07:59:17;;;;;;;190.00;72.70;;;;;;;-1.34;84.68;101424.71;84738;1327;26513;-68
2021/12/12 08:01:24;;;;;;;193.70;74.90;;;;;;;-1.33;84.89;101425.60;84767;1324;22603;-68
2021/12/12 08:03:36;;;;;;;190.70;68.30;;;;;;;-1.33;84.54;101423.22;84648;1329;22629;-70
2021/12/12 08:05:46;;;;;;;190.10;71.80;;;;;;;-1.36;84.28;101430.98;84746;1327;22616;-69
2021/12/12 08:07:53;;;;;;;189.50;69.30;;;;;;;-1.38;84.39;101428.89;84736;1328;22794;-69
2021/12/12 08:10:00;;;;;;;189.20;71.80;;;;;;;-1.40;84.47;101431.23;84717;1327;22667;-70
2021/12/12 08:12:08;;;;;;;192.70;75.00;;;;;;;-1.40;84.32;101437.58;84774;1327;24215;-69
2021/12/12 08:14:19;;;;;;;189.70;75.10;;;;;;;-1.41;84.19;101444.05;84731;1327;22593;-69
2021/12/12 08:16:26;;;;;;;193.70;71.30;;;;;;;-1.43;84.19;101448.61;84760;1327;22666;-70
2021/12/12 08:18:37;;;;;;;194.30;76.30;;;;;;;-1.44;84.29;101449.78;84681;1321;25289;-67
2021/12/12 08:20:44;;;;;;;;;;;;;;;-1.45;84.20;101447.18;84717;1327;22595;-69
2021/12/12 08:22:53;;;;;;;185.30;68.30;;;;;;;-1.47;84.36;101450.54;84678;1330;24086;-69
2021/12/12 08:25:05;;;;;;;196.40;72.50;;;;;;;-1.47;84.46;101453.30;84745;1327;22600;-69
2021/12/12 08:27:12;;;;;;;193.10;82.10;;;;;;;-1.47;84.59;101450.21;84746;1327;25330;-74
2021/12/12 08:29:20;;;;;;;201.80;81.60;;;;;;;-1.46;84.25;101454.34;84694;1330;22705;-74
2021/12/12 08:31:27;;;;;;;215.90;85.20;;;;;;;-1.44;84.20;101460.71;84727;1327;23990;-69
2021/12/12 08:33:34;;;;;;;214.60;85.00;;;;;;;-1.44;84.16;101464.66;84689;1332;22613;-70
2021/12/12 08:35:42;;;;;;;207.40;85.80;;;;;;;-1.43;84.27;101461.27;84726;1327;23966;-69
2021/12/12 08:37:49;;;;;;;213.60;86.80;;;;;;;-1.43;84.04;101465.04;84738;1330;22626;-68
2021/12/12 08:39:59;;;;;;;217.20;92.60;;;;;;;-1.45;83.67;101466.50;84665;1330;22600;-69
2021/12/12 08:42:07;;;;;;;;;;;;;;;-1.48;83.75;101464.38;84717;1329;22576;-69
2021/12/12 08:44:15;;;;;;;203.20;83.70;;;;;;;-1.50;84.05;101460.89;84752;1328;22596;-69
2021/12/12 08:46:23;;;;;;;204.20;84.80;;;;;;;-1.53;83.94;101464.06;84728;1327;22639;-70
2021/12/12 08:48:33;;;;;;;193.70;79.70;;;;;;;-1.57;83.55;101470.47;84687;1328;22878;-69
2021/12/12 08:50:42;;;;;;;173.30;77.50;;;;;;;-1.58;83.55;101475.20;84755;1327;22594;-70
2021/12/12 08:52:51;;;;;;;178.60;78.00;;;;;;;-1.58;83.61;101467.69;84697;1327;25610;-75
2021/12/12 08:55:00;;;;;;;187.50;81.00;;;;;;;-1.57;83.52;101470.14;84741;1327;22611;-74
2021/12/12 08:57:10;;;;;;;191.40;82.20;;;;;;;-1.54;83.73;101476.17;84757;1329;22747;-75
2021/12/12 08:59:20;;;;;;;183.10;82.70;;;;;;;-1.54;83.58;101474.14;84714;1327;22600;-68
2021/12/12 09:01:30;;;;;;;191.50;81.10;;;;;;;-1.54;83.48;101472.09;84725;1328;26047;-73
2021/12/12 09:03:42;;;;;;;184.30;80.40;;;;;;;-1.55;83.69;101467.77;84697;1327;22732;-78
2021/12/12 09:05:49;;;;;;;183.90;80.40;;;;;;;-1.54;83.73;101467.13;84707;1328;22622;-71
2021/12/12 09:08:01;;;;;;;188.70;80.00;;;;;;;-1.58;83.70;101464.11;84736;1327;22674;-70
2021/12/12 09:10:14;;;;;;;176.90;78.70;;;;;;;-1.59;83.37;101463.89;84732;1326;22698;-70
2021/12/12 09:12:25;;;;;;;180.00;74.10;;;;;;;-1.62;83.27;101463.64;84027;1327;1003636;-75
2021/12/12 09:14:37;;;;;;;180.10;74.70;;;;;;;-1.62;83.31;101461.95;84667;1329;22606;-73
2021/12/12 09:16:48;;;;;;;171.30;74.90;;;;;;;-1.63;83.41;101460.71;84695;1325;22602;-69
2021/12/12 09:19:00;;;;;;;167.40;70.90;;;;;;;-1.63;83.27;101465.16;84726;1328;22604;-69
2021/12/12 09:21:13;;;;;;;170.40;72.80;;;;;;;-1.61;83.04;101467.77;84718;1327;24001;-74
2021/12/12 09:23:23;;;;;;;163.90;77.00;;;;;;;-1.63;82.92;101465.33;84709;1330;22604;-75
2021/12/12 09:25:36;;;;;;;161.10;72.90;;;;;;;-1.69;83.03;101462.06;84733;1327;22668;-75
2021/12/12 09:27:46;;;;;;;168.90;75.40;;;;;;;-1.72;83.19;101463.85;84714;1327;23868;-75
2021/12/12 09:29:59;;;;;;;173.20;74.70;;;;;;;-1.72;83.10;101461.45;83969;1326;1003868;-75
2021/12/12 09:32:12;;;;;;;176.80;73.60;;;;;;;-1.71;83.13;101461.32;84665;1329;22653;-74
2021/12/12 09:34:26;;;;;;;177.60;74.30;;;;;;;-1.73;83.05;101456.98;84682;1327;24103;-74
2021/12/12 09:36:39;;;;;;;154.20;65.80;;;;;;;-1.74;82.99;101460.88;84758;1327;22619;-74
2021/12/12 09:38:50;;;;;;;150.60;66.80;;;;;;;-1.75;82.78;101463.76;84742;1325;23216;-75
2021/12/12 09:41:20;;;;;;;141.00;61.40;;;;;;;-1.75;82.68;101458.80;84742;1327;22587;-69
2021/12/12 09:43:34;;;;;;;;;;;;;;;-1.75;82.58;101453.66;84688;1326;22650;-69
2021/12/12 09:46:09;;;;;;;144.30;61.80;;;;;;;-1.79;82.57;101451.48;84662;1321;22606;-69
2021/12/12 09:51:24;;;;;;;132.50;60.40;;;;;;;-1.79;82.61;101437.29;84676;1325;22701;-69
2021/12/12 09:53:56;;;;;;;138.40;61.70;;;;;;;-1.79;82.65;101432.67;84733;1327;22631;-67
2021/12/12 09:56:06;;;;;;;135.00;62.90;;;;;;;-1.80;82.74;101428.89;84736;1327;22810;-67
2021/12/12 09:58:24;;;;;;;124.10;54.60;;;;;;;-1.79;82.81;101430.63;84771;1322;22830;-68
2021/12/12 10:00:33;;;;;;;119.00;51.50;;;;;;;-1.79;82.68;101431.13;84734;1327;22607;-68
2021/12/12 10:03:02;;;;;;;124.00;52.80;;;;;;;-1.80;82.66;101437.44;84711;1324;22803;-75
2021/12/12 10:05:19;;;;;;;110.90;50.00;;;;;;;-1.82;82.35;101427.98;84707;1329;22654;-75